sensor_id;sensor_type;location;lat;lon;timestamp;P1;durP1;ratioP1;P2;durP2;ratioP2
16954;SDS011;8594;52.052;8.354;2023-03-20T00:01:50;54.03;;;23.47;;
16954;SDS011;8594;52.052;8.354;2023-03-20T00:04:19;46.93;;;22.80;;
16954;SDS011;8594;52.052;8.354;2023-03-20T00:06:45;52.17;;;24.27;;
16954;SDS011;8594;52.052;8.354;2023-03-20T00:09:12;46.90;;;21.90;;
16954;SDS011;8594;52.052;8.354;2023-03-20T00:11:40;47.80;;;23.07;;
16954;SDS011;8594;52.052;8.354;2023-03-20T00:14:14;50.23;;;22.40;;
16954;SDS011;8594;52.052;8.354;2023-03-20T00:16:44;49.40;;;22.97;;
16954;SDS011;8594;52.052;8.354;2023-03-20T00:19:14;47.50;;;21.77;;
16954;SDS011;8594;52.052;8.354;2023-03-20T00:21:44;43.23;;;21.57;;
16954;SDS011;8594;52.052;8.354;2023-03-20T00:24:12;49.53;;;21.97;;
16954;SDS011;8594;52.052;8.354;2023-03-20T00:26:40;44.50;;;20.40;;
16954;SDS011;8594;52.052;8.354;2023-03-20T00:29:12;49.40;;;22.37;;
16954;SDS011;8594;52.052;8.354;2023-03-20T00:31:46;51.17;;;21.43;;
16954;SDS011;8594;52.052;8.354;2023-03-20T00:34:14;50.57;;;22.40;;
16954;SDS011;8594;52.052;8.354;2023-03-20T00:36:44;50.10;;;22.93;;
16954;SDS011;8594;52.052;8.354;2023-03-20T00:39:11;51.90;;;23.10;;
16954;SDS011;8594;52.052;8.354;2023-03-20T00:41:40;51.50;;;22.93;;
16954;SDS011;8594;52.052;8.354;2023-03-20T00:44:17;55.00;;;23.47;;
16954;SDS011;8594;52.052;8.354;2023-03-20T00:46:49;51.37;;;22.03;;
16954;SDS011;8594;52.052;8.354;2023-03-20T00:49:19;51.87;;;22.53;;
16954;SDS011;8594;52.052;8.354;2023-03-20T00:51:53;50.93;;;23.50;;
16954;SDS011;8594;52.052;8.354;2023-03-20T00:54:20;49.37;;;22.87;;
16954;SDS011;8594;52.052;8.354;2023-03-20T00:56:48;56.63;;;24.60;;
16954;SDS011;8594;52.052;8.354;2023-03-20T00:59:23;58.40;;;25.43;;
16954;SDS011;8594;52.052;8.354;2023-03-20T01:01:55;68.27;;;25.23;;
16954;SDS011;8594;52.052;8.354;2023-03-20T01:04:22;63.10;;;24.37;;
16954;SDS011;8594;52.052;8.354;2023-03-20T01:06:49;71.30;;;27.43;;
16954;SDS011;8594;52.052;8.354;2023-03-20T01:09:17;76.90;;;30.03;;
16954;SDS011;8594;52.052;8.354;2023-03-20T01:11:44;72.53;;;27.07;;
16954;SDS011;8594;52.052;8.354;2023-03-20T01:14:11;83.07;;;28.60;;
16954;SDS011;8594;52.052;8.354;2023-03-20T01:16:42;67.53;;;26.20;;
16954;SDS011;8594;52.052;8.354;2023-03-20T01:19:10;75.93;;;28.37;;
16954;SDS011;8594;52.052;8.354;2023-03-20T01:21:38;76.93;;;28.63;;
16954;SDS011;8594;52.052;8.354;2023-03-20T01:24:05;75.37;;;28.70;;
16954;SDS011;8594;52.052;8.354;2023-03-20T01:26:34;71.20;;;27.70;;
16954;SDS011;8594;52.052;8.354;2023-03-20T01:29:04;73.60;;;27.70;;
16954;SDS011;8594;52.052;8.354;2023-03-20T01:31:43;66.67;;;27.07;;
16954;SDS011;8594;52.052;8.354;2023-03-20T01:34:10;62.03;;;24.20;;
16954;SDS011;8594;52.052;8.354;2023-03-20T01:36:38;61.03;;;24.90;;
16954;SDS011;8594;52.052;8.354;2023-03-20T01:39:05;57.83;;;23.50;;
16954;SDS011;8594;52.052;8.354;2023-03-20T01:41:32;55.87;;;23.87;;
16954;SDS011;8594;52.052;8.354;2023-03-20T01:44:06;57.37;;;23.10;;
16954;SDS011;8594;52.052;8.354;2023-03-20T01:46:46;52.43;;;22.13;;
16954;SDS011;8594;52.052;8.354;2023-03-20T01:52:46;50.97;;;21.37;;
16954;SDS011;8594;52.052;8.354;2023-03-20T01:55:19;50.57;;;21.50;;
16954;SDS011;8594;52.052;8.354;2023-03-20T01:57:48;55.13;;;22.57;;
16954;SDS011;8594;52.052;8.354;2023-03-20T02:00:18;52.93;;;20.97;;
16954;SDS011;8594;52.052;8.354;2023-03-20T02:02:47;54.10;;;20.17;;
16954;SDS011;8594;52.052;8.354;2023-03-20T02:05:16;54.23;;;20.80;;
16954;SDS011;8594;52.052;8.354;2023-03-20T02:07:48;50.73;;;20.93;;
16954;SDS011;8594;52.052;8.354;2023-03-20T02:10:27;48.90;;;20.13;;
16954;SDS011;8594;52.052;8.354;2023-03-20T02:12:56;52.00;;;20.93;;
16954;SDS011;8594;52.052;8.354;2023-03-20T02:15:25;52.50;;;20.83;;
16954;SDS011;8594;52.052;8.354;2023-03-20T02:17:54;48.27;;;20.00;;
16954;SDS011;8594;52.052;8.354;2023-03-20T02:20:25;50.07;;;20.20;;
16954;SDS011;8594;52.052;8.354;2023-03-20T02:26:20;51.70;;;20.57;;
16954;SDS011;8594;52.052;8.354;2023-03-20T02:29:24;50.83;;;20.50;;
16954;SDS011;8594;52.052;8.354;2023-03-20T02:32:33;51.73;;;20.33;;
16954;SDS011;8594;52.052;8.354;2023-03-20T02:35:48;52.87;;;20.43;;
16954;SDS011;8594;52.052;8.354;2023-03-20T02:42:01;43.40;;;18.73;;
16954;SDS011;8594;52.052;8.354;2023-03-20T02:44:40;51.27;;;21.70;;
16954;SDS011;8594;52.052;8.354;2023-03-20T02:47:17;48.17;;;20.90;;
16954;SDS011;8594;52.052;8.354;2023-03-20T02:49:53;48.77;;;20.33;;
16954;SDS011;8594;52.052;8.354;2023-03-20T02:52:30;54.00;;;20.63;;
16954;SDS011;8594;52.052;8.354;2023-03-20T02:55:12;49.03;;;19.77;;
16954;SDS011;8594;52.052;8.354;2023-03-20T02:57:47;52.93;;;21.33;;
16954;SDS011;8594;52.052;8.354;2023-03-20T03:00:26;49.63;;;20.17;;
16954;SDS011;8594;52.052;8.354;2023-03-20T03:03:00;48.90;;;20.33;;
16954;SDS011;8594;52.052;8.354;2023-03-20T03:05:36;51.63;;;20.67;;
16954;SDS011;8594;52.052;8.354;2023-03-20T03:08:09;52.73;;;21.60;;
16954;SDS011;8594;52.052;8.354;2023-03-20T03:10:42;54.10;;;20.33;;
16954;SDS011;8594;52.052;8.354;2023-03-20T03:13:14;50.50;;;21.43;;
16954;SDS011;8594;52.052;8.354;2023-03-20T03:15:49;55.37;;;22.03;;
16954;SDS011;8594;52.052;8.354;2023-03-20T03:18:21;56.13;;;23.30;;
16954;SDS011;8594;52.052;8.354;2023-03-20T03:20:53;63.67;;;23.03;;
16954;SDS011;8594;52.052;8.354;2023-03-20T03:23:28;62.00;;;23.27;;
16954;SDS011;8594;52.052;8.354;2023-03-20T03:26:00;55.67;;;22.37;;
16954;SDS011;8594;52.052;8.354;2023-03-20T03:28:31;66.53;;;25.40;;
16954;SDS011;8594;52.052;8.354;2023-03-20T03:31:03;61.53;;;24.17;;
16954;SDS011;8594;52.052;8.354;2023-03-20T03:33:33;53.80;;;21.93;;
16954;SDS011;8594;52.052;8.354;2023-03-20T03:36:07;61.63;;;23.97;;
16954;SDS011;8594;52.052;8.354;2023-03-20T03:38:44;59.60;;;24.47;;
16954;SDS011;8594;52.052;8.354;2023-03-20T03:41:23;61.90;;;25.10;;
16954;SDS011;8594;52.052;8.354;2023-03-20T03:43:57;62.77;;;25.67;;
16954;SDS011;8594;52.052;8.354;2023-03-20T03:46:34;62.27;;;25.47;;
16954;SDS011;8594;52.052;8.354;2023-03-20T03:49:12;67.73;;;25.53;;
16954;SDS011;8594;52.052;8.354;2023-03-20T03:51:46;59.40;;;25.57;;
16954;SDS011;8594;52.052;8.354;2023-03-20T03:54:21;58.50;;;25.20;;
16954;SDS011;8594;52.052;8.354;2023-03-20T03:56:53;61.47;;;25.40;;
16954;SDS011;8594;52.052;8.354;2023-03-20T03:59:23;58.97;;;25.20;;
16954;SDS011;8594;52.052;8.354;2023-03-20T04:01:58;59.03;;;25.13;;
16954;SDS011;8594;52.052;8.354;2023-03-20T04:04:28;60.20;;;24.17;;
16954;SDS011;8594;52.052;8.354;2023-03-20T04:06:57;58.47;;;25.50;;
16954;SDS011;8594;52.052;8.354;2023-03-20T04:09:24;67.20;;;26.87;;
16954;SDS011;8594;52.052;8.354;2023-03-20T04:11:51;67.77;;;27.90;;
16954;SDS011;8594;52.052;8.354;2023-03-20T04:14:20;67.07;;;28.23;;
16954;SDS011;8594;52.052;8.354;2023-03-20T04:16:47;68.53;;;27.90;;
16954;SDS011;8594;52.052;8.354;2023-03-20T04:19:13;69.10;;;27.33;;
16954;SDS011;8594;52.052;8.354;2023-03-20T04:21:40;66.50;;;27.53;;
16954;SDS011;8594;52.052;8.354;2023-03-20T04:24:09;62.87;;;27.57;;
16954;SDS011;8594;52.052;8.354;2023-03-20T04:26:36;69.00;;;29.13;;
16954;SDS011;8594;52.052;8.354;2023-03-20T04:29:05;60.73;;;26.97;;
16954;SDS011;8594;52.052;8.354;2023-03-20T04:31:32;60.73;;;26.57;;
16954;SDS011;8594;52.052;8.354;2023-03-20T04:33:58;64.87;;;27.17;;
16954;SDS011;8594;52.052;8.354;2023-03-20T04:36:25;64.50;;;27.60;;
16954;SDS011;8594;52.052;8.354;2023-03-20T04:38:52;65.97;;;27.77;;
16954;SDS011;8594;52.052;8.354;2023-03-20T04:41:19;57.17;;;25.57;;
16954;SDS011;8594;52.052;8.354;2023-03-20T04:43:46;56.17;;;25.80;;
16954;SDS011;8594;52.052;8.354;2023-03-20T04:46:14;60.67;;;27.40;;
16954;SDS011;8594;52.052;8.354;2023-03-20T04:48:40;54.07;;;24.57;;
16954;SDS011;8594;52.052;8.354;2023-03-20T04:51:07;51.60;;;23.43;;
16954;SDS011;8594;52.052;8.354;2023-03-20T04:53:35;51.67;;;23.27;;
16954;SDS011;8594;52.052;8.354;2023-03-20T04:56:02;53.80;;;22.57;;
16954;SDS011;8594;52.052;8.354;2023-03-20T04:58:29;47.37;;;23.00;;
16954;SDS011;8594;52.052;8.354;2023-03-20T05:00:56;49.47;;;22.13;;
16954;SDS011;8594;52.052;8.354;2023-03-20T05:03:24;52.10;;;22.60;;
16954;SDS011;8594;52.052;8.354;2023-03-20T05:05:51;50.37;;;21.33;;
16954;SDS011;8594;52.052;8.354;2023-03-20T05:08:18;43.40;;;20.30;;
16954;SDS011;8594;52.052;8.354;2023-03-20T05:10:45;48.10;;;21.23;;
16954;SDS011;8594;52.052;8.354;2023-03-20T05:13:12;43.83;;;20.40;;
16954;SDS011;8594;52.052;8.354;2023-03-20T05:15:39;38.17;;;19.07;;
16954;SDS011;8594;52.052;8.354;2023-03-20T05:18:06;46.50;;;19.57;;
16954;SDS011;8594;52.052;8.354;2023-03-20T05:20:35;43.17;;;20.07;;
16954;SDS011;8594;52.052;8.354;2023-03-20T05:23:02;43.27;;;19.63;;
16954;SDS011;8594;52.052;8.354;2023-03-20T05:25:29;45.37;;;20.80;;
16954;SDS011;8594;52.052;8.354;2023-03-20T05:27:55;41.70;;;19.10;;
16954;SDS011;8594;52.052;8.354;2023-03-20T05:30:22;43.80;;;21.23;;
16954;SDS011;8594;52.052;8.354;2023-03-20T05:32:49;45.43;;;19.90;;
16954;SDS011;8594;52.052;8.354;2023-03-20T05:35:17;42.67;;;20.27;;
16954;SDS011;8594;52.052;8.354;2023-03-20T05:37:46;43.67;;;20.10;;
16954;SDS011;8594;52.052;8.354;2023-03-20T05:40:13;43.60;;;20.73;;
16954;SDS011;8594;52.052;8.354;2023-03-20T05:42:43;46.97;;;21.43;;
16954;SDS011;8594;52.052;8.354;2023-03-20T05:45:10;45.57;;;20.37;;
16954;SDS011;8594;52.052;8.354;2023-03-20T05:47:39;47.40;;;21.53;;
16954;SDS011;8594;52.052;8.354;2023-03-20T05:50:06;45.27;;;22.03;;
16954;SDS011;8594;52.052;8.354;2023-03-20T05:52:35;48.63;;;22.30;;
16954;SDS011;8594;52.052;8.354;2023-03-20T05:55:03;50.30;;;21.47;;
16954;SDS011;8594;52.052;8.354;2023-03-20T05:57:31;45.83;;;21.07;;
16954;SDS011;8594;52.052;8.354;2023-03-20T05:59:58;48.47;;;21.87;;
16954;SDS011;8594;52.052;8.354;2023-03-20T06:02:24;47.60;;;22.47;;
16954;SDS011;8594;52.052;8.354;2023-03-20T06:04:51;46.47;;;21.43;;
16954;SDS011;8594;52.052;8.354;2023-03-20T06:07:18;41.87;;;20.70;;
16954;SDS011;8594;52.052;8.354;2023-03-20T06:09:45;44.43;;;20.83;;
16954;SDS011;8594;52.052;8.354;2023-03-20T06:12:14;47.50;;;21.07;;
16954;SDS011;8594;52.052;8.354;2023-03-20T06:14:41;43.90;;;19.80;;
16954;SDS011;8594;52.052;8.354;2023-03-20T06:17:08;41.10;;;19.83;;
16954;SDS011;8594;52.052;8.354;2023-03-20T06:19:35;47.23;;;21.50;;
16954;SDS011;8594;52.052;8.354;2023-03-20T06:22:02;48.00;;;21.17;;
16954;SDS011;8594;52.052;8.354;2023-03-20T06:24:29;44.27;;;20.37;;
16954;SDS011;8594;52.052;8.354;2023-03-20T06:26:57;42.20;;;20.40;;
16954;SDS011;8594;52.052;8.354;2023-03-20T06:29:25;44.47;;;20.77;;
16954;SDS011;8594;52.052;8.354;2023-03-20T06:31:52;41.70;;;19.90;;
16954;SDS011;8594;52.052;8.354;2023-03-20T06:34:20;43.00;;;20.10;;
16954;SDS011;8594;52.052;8.354;2023-03-20T06:36:46;38.43;;;18.90;;
16954;SDS011;8594;52.052;8.354;2023-03-20T06:39:13;39.13;;;18.83;;
16954;SDS011;8594;52.052;8.354;2023-03-20T06:41:40;41.40;;;20.13;;
16954;SDS011;8594;52.052;8.354;2023-03-20T06:44:07;39.63;;;19.77;;
16954;SDS011;8594;52.052;8.354;2023-03-20T06:46:35;40.50;;;19.20;;
16954;SDS011;8594;52.052;8.354;2023-03-20T06:49:02;45.23;;;19.93;;
16954;SDS011;8594;52.052;8.354;2023-03-20T06:51:30;41.67;;;18.53;;
16954;SDS011;8594;52.052;8.354;2023-03-20T06:53:57;40.97;;;18.97;;
16954;SDS011;8594;52.052;8.354;2023-03-20T06:56:23;41.03;;;18.73;;
16954;SDS011;8594;52.052;8.354;2023-03-20T06:58:50;41.07;;;19.87;;
16954;SDS011;8594;52.052;8.354;2023-03-20T07:01:17;39.90;;;19.47;;
16954;SDS011;8594;52.052;8.354;2023-03-20T07:03:45;41.37;;;19.20;;
16954;SDS011;8594;52.052;8.354;2023-03-20T07:06:12;40.63;;;19.30;;
16954;SDS011;8594;52.052;8.354;2023-03-20T07:08:39;41.57;;;20.10;;
16954;SDS011;8594;52.052;8.354;2023-03-20T07:11:06;38.40;;;18.73;;
16954;SDS011;8594;52.052;8.354;2023-03-20T07:13:34;39.40;;;19.07;;
16954;SDS011;8594;52.052;8.354;2023-03-20T07:16:02;38.77;;;19.67;;
16954;SDS011;8594;52.052;8.354;2023-03-20T07:18:30;43.73;;;20.73;;
16954;SDS011;8594;52.052;8.354;2023-03-20T07:20:59;44.90;;;20.33;;
16954;SDS011;8594;52.052;8.354;2023-03-20T07:23:29;39.70;;;18.73;;
16954;SDS011;8594;52.052;8.354;2023-03-20T07:25:58;39.27;;;18.87;;
16954;SDS011;8594;52.052;8.354;2023-03-20T07:28:25;41.20;;;18.47;;
16954;SDS011;8594;52.052;8.354;2023-03-20T07:30:52;39.67;;;18.33;;
16954;SDS011;8594;52.052;8.354;2023-03-20T07:33:19;35.60;;;16.87;;
16954;SDS011;8594;52.052;8.354;2023-03-20T07:35:46;37.60;;;17.20;;
16954;SDS011;8594;52.052;8.354;2023-03-20T07:38:18;35.00;;;15.60;;
16954;SDS011;8594;52.052;8.354;2023-03-20T07:40:46;29.20;;;15.57;;
16954;SDS011;8594;52.052;8.354;2023-03-20T07:43:13;34.47;;;16.60;;
16954;SDS011;8594;52.052;8.354;2023-03-20T07:45:40;31.13;;;15.37;;
16954;SDS011;8594;52.052;8.354;2023-03-20T07:48:07;29.73;;;14.93;;
16954;SDS011;8594;52.052;8.354;2023-03-20T07:50:34;25.57;;;13.80;;
16954;SDS011;8594;52.052;8.354;2023-03-20T07:53:01;31.13;;;15.00;;
16954;SDS011;8594;52.052;8.354;2023-03-20T07:55:29;27.70;;;14.20;;
16954;SDS011;8594;52.052;8.354;2023-03-20T07:57:56;27.10;;;14.40;;
16954;SDS011;8594;52.052;8.354;2023-03-20T08:00:22;28.13;;;14.87;;
16954;SDS011;8594;52.052;8.354;2023-03-20T08:02:49;29.33;;;14.20;;
16954;SDS011;8594;52.052;8.354;2023-03-20T08:05:16;27.17;;;13.67;;
16954;SDS011;8594;52.052;8.354;2023-03-20T08:07:43;31.30;;;15.60;;
16954;SDS011;8594;52.052;8.354;2023-03-20T08:10:10;30.67;;;15.50;;
16954;SDS011;8594;52.052;8.354;2023-03-20T08:12:38;28.47;;;15.00;;
16954;SDS011;8594;52.052;8.354;2023-03-20T08:15:05;26.13;;;14.10;;
16954;SDS011;8594;52.052;8.354;2023-03-20T08:17:33;25.20;;;13.40;;
16954;SDS011;8594;52.052;8.354;2023-03-20T08:20:00;23.23;;;12.20;;
16954;SDS011;8594;52.052;8.354;2023-03-20T08:22:27;25.17;;;11.43;;
16954;SDS011;8594;52.052;8.354;2023-03-20T08:24:54;23.87;;;11.17;;
16954;SDS011;8594;52.052;8.354;2023-03-20T08:27:21;21.00;;;10.40;;
16954;SDS011;8594;52.052;8.354;2023-03-20T08:29:50;20.33;;;10.13;;
16954;SDS011;8594;52.052;8.354;2023-03-20T08:32:17;19.70;;;10.57;;
16954;SDS011;8594;52.052;8.354;2023-03-20T08:34:44;21.57;;;10.20;;
16954;SDS011;8594;52.052;8.354;2023-03-20T08:37:11;17.83;;;9.43;;
16954;SDS011;8594;52.052;8.354;2023-03-20T08:39:39;18.57;;;9.10;;
16954;SDS011;8594;52.052;8.354;2023-03-20T08:42:06;17.87;;;8.93;;
16954;SDS011;8594;52.052;8.354;2023-03-20T08:44:33;16.20;;;8.00;;
16954;SDS011;8594;52.052;8.354;2023-03-20T08:47:01;17.67;;;8.87;;
16954;SDS011;8594;52.052;8.354;2023-03-20T08:49:29;16.30;;;9.13;;
16954;SDS011;8594;52.052;8.354;2023-03-20T08:51:56;19.63;;;7.57;;
16954;SDS011;8594;52.052;8.354;2023-03-20T08:54:24;15.20;;;8.10;;
16954;SDS011;8594;52.052;8.354;2023-03-20T08:56:52;14.13;;;7.70;;
16954;SDS011;8594;52.052;8.354;2023-03-20T08:59:18;15.27;;;7.30;;
16954;SDS011;8594;52.052;8.354;2023-03-20T09:01:45;16.00;;;7.50;;
16954;SDS011;8594;52.052;8.354;2023-03-20T09:04:14;15.17;;;7.87;;
16954;SDS011;8594;52.052;8.354;2023-03-20T09:06:40;15.80;;;8.33;;
16954;SDS011;8594;52.052;8.354;2023-03-20T09:09:07;14.37;;;7.80;;
16954;SDS011;8594;52.052;8.354;2023-03-20T09:11:34;17.63;;;7.90;;
16954;SDS011;8594;52.052;8.354;2023-03-20T09:14:02;27.23;;;9.80;;
16954;SDS011;8594;52.052;8.354;2023-03-20T09:16:29;22.37;;;9.47;;
16954;SDS011;8594;52.052;8.354;2023-03-20T09:18:56;14.33;;;8.07;;
16954;SDS011;8594;52.052;8.354;2023-03-20T09:21:24;16.20;;;8.03;;
16954;SDS011;8594;52.052;8.354;2023-03-20T09:23:50;16.70;;;8.63;;
16954;SDS011;8594;52.052;8.354;2023-03-20T09:26:17;21.70;;;8.70;;
16954;SDS011;8594;52.052;8.354;2023-03-20T09:28:44;20.40;;;10.00;;
16954;SDS011;8594;52.052;8.354;2023-03-20T09:31:11;21.47;;;11.00;;
16954;SDS011;8594;52.052;8.354;2023-03-20T09:33:38;18.47;;;10.87;;
16954;SDS011;8594;52.052;8.354;2023-03-20T09:36:05;20.20;;;11.17;;
16954;SDS011;8594;52.052;8.354;2023-03-20T09:38:36;24.43;;;11.60;;
16954;SDS011;8594;52.052;8.354;2023-03-20T09:41:05;23.13;;;11.60;;
16954;SDS011;8594;52.052;8.354;2023-03-20T09:43:44;21.63;;;12.93;;
16954;SDS011;8594;52.052;8.354;2023-03-20T09:46:31;24.83;;;12.53;;
16954;SDS011;8594;52.052;8.354;2023-03-20T09:49:28;25.43;;;11.97;;
16954;SDS011;8594;52.052;8.354;2023-03-20T09:52:12;23.13;;;12.57;;
16954;SDS011;8594;52.052;8.354;2023-03-20T09:54:48;22.40;;;12.43;;
16954;SDS011;8594;52.052;8.354;2023-03-20T09:57:20;20.97;;;11.13;;
16954;SDS011;8594;52.052;8.354;2023-03-20T09:59:54;22.60;;;12.60;;
16954;SDS011;8594;52.052;8.354;2023-03-20T10:02:34;23.10;;;11.93;;
16954;SDS011;8594;52.052;8.354;2023-03-20T10:05:14;20.47;;;10.80;;
16954;SDS011;8594;52.052;8.354;2023-03-20T10:07:47;22.67;;;10.63;;
16954;SDS011;8594;52.052;8.354;2023-03-20T10:10:16;21.13;;;10.47;;
16954;SDS011;8594;52.052;8.354;2023-03-20T10:12:46;17.47;;;9.30;;
16954;SDS011;8594;52.052;8.354;2023-03-20T10:15:40;20.63;;;9.97;;
16954;SDS011;8594;52.052;8.354;2023-03-20T10:18:17;18.10;;;9.77;;
16954;SDS011;8594;52.052;8.354;2023-03-20T10:20:53;20.47;;;10.07;;
16954;SDS011;8594;52.052;8.354;2023-03-20T10:23:26;19.30;;;8.83;;
16954;SDS011;8594;52.052;8.354;2023-03-20T10:26:04;17.33;;;9.10;;
16954;SDS011;8594;52.052;8.354;2023-03-20T10:28:39;14.80;;;8.37;;
16954;SDS011;8594;52.052;8.354;2023-03-20T10:31:19;20.80;;;8.60;;
16954;SDS011;8594;52.052;8.354;2023-03-20T10:34:02;16.40;;;8.17;;
16954;SDS011;8594;52.052;8.354;2023-03-20T10:36:53;16.67;;;8.47;;
16954;SDS011;8594;52.052;8.354;2023-03-20T10:39:38;18.53;;;7.83;;
16954;SDS011;8594;52.052;8.354;2023-03-20T10:42:24;13.07;;;7.10;;
16954;SDS011;8594;52.052;8.354;2023-03-20T10:44:57;16.70;;;7.97;;
16954;SDS011;8594;52.052;8.354;2023-03-20T10:47:31;16.90;;;8.00;;
16954;SDS011;8594;52.052;8.354;2023-03-20T10:50:04;13.43;;;7.43;;
16954;SDS011;8594;52.052;8.354;2023-03-20T10:52:37;14.73;;;7.33;;
16954;SDS011;8594;52.052;8.354;2023-03-20T10:55:09;14.27;;;6.93;;
16954;SDS011;8594;52.052;8.354;2023-03-20T10:57:43;15.23;;;7.70;;
16954;SDS011;8594;52.052;8.354;2023-03-20T11:00:18;13.03;;;6.80;;
16954;SDS011;8594;52.052;8.354;2023-03-20T11:02:49;12.37;;;6.37;;
16954;SDS011;8594;52.052;8.354;2023-03-20T11:05:21;12.17;;;6.23;;
16954;SDS011;8594;52.052;8.354;2023-03-20T11:07:59;15.27;;;6.10;;
16954;SDS011;8594;52.052;8.354;2023-03-20T11:10:30;12.30;;;5.43;;
16954;SDS011;8594;52.052;8.354;2023-03-20T11:13:01;15.37;;;5.10;;
16954;SDS011;8594;52.052;8.354;2023-03-20T11:15:43;13.00;;;5.27;;
16954;SDS011;8594;52.052;8.354;2023-03-20T11:18:11;14.23;;;4.80;;
16954;SDS011;8594;52.052;8.354;2023-03-20T11:20:43;12.53;;;4.73;;
16954;SDS011;8594;52.052;8.354;2023-03-20T11:23:14;9.60;;;4.20;;
16954;SDS011;8594;52.052;8.354;2023-03-20T11:25:47;10.93;;;4.23;;
16954;SDS011;8594;52.052;8.354;2023-03-20T11:28:20;8.67;;;3.90;;
16954;SDS011;8594;52.052;8.354;2023-03-20T11:30:56;6.97;;;4.10;;
16954;SDS011;8594;52.052;8.354;2023-03-20T11:33:26;10.80;;;4.10;;
16954;SDS011;8594;52.052;8.354;2023-03-20T11:35:56;8.30;;;3.60;;
16954;SDS011;8594;52.052;8.354;2023-03-20T11:38:24;11.93;;;4.00;;
16954;SDS011;8594;52.052;8.354;2023-03-20T11:40:51;14.43;;;4.60;;
16954;SDS011;8594;52.052;8.354;2023-03-20T11:43:22;10.00;;;4.47;;
16954;SDS011;8594;52.052;8.354;2023-03-20T11:45:53;10.77;;;3.73;;
16954;SDS011;8594;52.052;8.354;2023-03-20T11:48:23;8.83;;;3.70;;
16954;SDS011;8594;52.052;8.354;2023-03-20T11:51:02;6.90;;;3.53;;
16954;SDS011;8594;52.052;8.354;2023-03-20T11:53:33;10.80;;;4.37;;
16954;SDS011;8594;52.052;8.354;2023-03-20T11:56:05;6.73;;;3.57;;
16954;SDS011;8594;52.052;8.354;2023-03-20T11:58:39;8.97;;;2.97;;
16954;SDS011;8594;52.052;8.354;2023-03-20T12:01:20;8.80;;;3.20;;
16954;SDS011;8594;52.052;8.354;2023-03-20T12:03:49;8.50;;;3.13;;
16954;SDS011;8594;52.052;8.354;2023-03-20T12:06:20;9.03;;;3.70;;
16954;SDS011;8594;52.052;8.354;2023-03-20T12:08:51;7.40;;;2.87;;
16954;SDS011;8594;52.052;8.354;2023-03-20T12:11:40;6.27;;;3.13;;
16954;SDS011;8594;52.052;8.354;2023-03-20T12:14:16;7.83;;;3.30;;
16954;SDS011;8594;52.052;8.354;2023-03-20T12:16:54;9.47;;;3.23;;
16954;SDS011;8594;52.052;8.354;2023-03-20T12:19:36;5.83;;;3.17;;
16954;SDS011;8594;52.052;8.354;2023-03-20T12:22:07;6.27;;;2.80;;
16954;SDS011;8594;52.052;8.354;2023-03-20T12:24:44;7.87;;;2.73;;
16954;SDS011;8594;52.052;8.354;2023-03-20T12:27:22;8.67;;;3.33;;
16954;SDS011;8594;52.052;8.354;2023-03-20T12:29:57;7.37;;;3.40;;
16954;SDS011;8594;52.052;8.354;2023-03-20T12:32:32;6.27;;;3.10;;
16954;SDS011;8594;52.052;8.354;2023-03-20T12:35:09;6.23;;;3.33;;
16954;SDS011;8594;52.052;8.354;2023-03-20T12:37:43;8.83;;;3.30;;
16954;SDS011;8594;52.052;8.354;2023-03-20T12:42:43;7.70;;;3.67;;
16954;SDS011;8594;52.052;8.354;2023-03-20T12:45:30;8.43;;;3.33;;
16954;SDS011;8594;52.052;8.354;2023-03-20T12:48:08;7.60;;;3.50;;
16954;SDS011;8594;52.052;8.354;2023-03-20T12:50:58;9.37;;;4.13;;
16954;SDS011;8594;52.052;8.354;2023-03-20T12:53:39;8.17;;;4.77;;
16954;SDS011;8594;52.052;8.354;2023-03-20T12:56:22;9.90;;;4.50;;
16954;SDS011;8594;52.052;8.354;2023-03-20T12:59:00;17.87;;;6.10;;
16954;SDS011;8594;52.052;8.354;2023-03-20T13:01:39;8.20;;;5.10;;
16954;SDS011;8594;52.052;8.354;2023-03-20T13:07:18;8.53;;;5.30;;
16954;SDS011;8594;52.052;8.354;2023-03-20T13:09:50;10.87;;;4.93;;
16954;SDS011;8594;52.052;8.354;2023-03-20T13:12:45;10.37;;;5.03;;
16954;SDS011;8594;52.052;8.354;2023-03-20T13:15:30;14.43;;;5.17;;
16954;SDS011;8594;52.052;8.354;2023-03-20T13:18:21;12.67;;;4.47;;
16954;SDS011;8594;52.052;8.354;2023-03-20T13:21:04;15.53;;;5.33;;
16954;SDS011;8594;52.052;8.354;2023-03-20T13:23:39;10.73;;;4.40;;
16954;SDS011;8594;52.052;8.354;2023-03-20T13:26:21;10.50;;;4.40;;
16954;SDS011;8594;52.052;8.354;2023-03-20T13:28:59;6.80;;;4.43;;
16954;SDS011;8594;52.052;8.354;2023-03-20T13:31:40;10.10;;;4.23;;
16954;SDS011;8594;52.052;8.354;2023-03-20T13:34:23;8.27;;;4.13;;
16954;SDS011;8594;52.052;8.354;2023-03-20T13:37:09;9.43;;;3.80;;
16954;SDS011;8594;52.052;8.354;2023-03-20T13:39:43;10.67;;;4.17;;
16954;SDS011;8594;52.052;8.354;2023-03-20T13:42:18;8.47;;;4.33;;
16954;SDS011;8594;52.052;8.354;2023-03-20T13:44:51;15.67;;;3.73;;
16954;SDS011;8594;52.052;8.354;2023-03-20T13:47:24;6.27;;;3.93;;
16954;SDS011;8594;52.052;8.354;2023-03-20T13:49:56;12.13;;;4.17;;
16954;SDS011;8594;52.052;8.354;2023-03-20T13:52:48;24.93;;;11.47;;
16954;SDS011;8594;52.052;8.354;2023-03-20T13:55:28;9.80;;;4.23;;
16954;SDS011;8594;52.052;8.354;2023-03-20T13:58:10;12.00;;;4.37;;
16954;SDS011;8594;52.052;8.354;2023-03-20T14:01:13;10.47;;;3.97;;
16954;SDS011;8594;52.052;8.354;2023-03-20T14:03:47;9.00;;;4.10;;
16954;SDS011;8594;52.052;8.354;2023-03-20T14:06:43;7.40;;;3.93;;
16954;SDS011;8594;52.052;8.354;2023-03-20T14:09:28;9.40;;;4.47;;
16954;SDS011;8594;52.052;8.354;2023-03-20T14:11:59;11.90;;;4.97;;
16954;SDS011;8594;52.052;8.354;2023-03-20T14:14:35;9.17;;;5.03;;
16954;SDS011;8594;52.052;8.354;2023-03-20T14:17:12;12.23;;;5.57;;
16954;SDS011;8594;52.052;8.354;2023-03-20T14:19:44;10.73;;;5.60;;
16954;SDS011;8594;52.052;8.354;2023-03-20T14:22:16;20.60;;;6.00;;
16954;SDS011;8594;52.052;8.354;2023-03-20T14:24:52;8.77;;;5.53;;
16954;SDS011;8594;52.052;8.354;2023-03-20T14:27:24;12.87;;;5.53;;
16954;SDS011;8594;52.052;8.354;2023-03-20T14:29:54;7.80;;;5.63;;
16954;SDS011;8594;52.052;8.354;2023-03-20T14:32:22;10.70;;;5.73;;
16954;SDS011;8594;52.052;8.354;2023-03-20T14:35:13;7.77;;;5.80;;
16954;SDS011;8594;52.052;8.354;2023-03-20T14:37:59;13.13;;;5.90;;
16954;SDS011;8594;52.052;8.354;2023-03-20T14:40:42;13.33;;;6.40;;
16954;SDS011;8594;52.052;8.354;2023-03-20T14:43:25;10.90;;;6.70;;
16954;SDS011;8594;52.052;8.354;2023-03-20T14:46:15;11.87;;;7.47;;
16954;SDS011;8594;52.052;8.354;2023-03-20T14:48:49;12.70;;;7.00;;
16954;SDS011;8594;52.052;8.354;2023-03-20T14:51:26;9.30;;;6.03;;
16954;SDS011;8594;52.052;8.354;2023-03-20T14:54:24;17.27;;;6.77;;
16954;SDS011;8594;52.052;8.354;2023-03-20T14:56:54;11.50;;;5.13;;
16954;SDS011;8594;52.052;8.354;2023-03-20T14:59:33;12.63;;;5.37;;
16954;SDS011;8594;52.052;8.354;2023-03-20T15:02:01;11.47;;;5.00;;
16954;SDS011;8594;52.052;8.354;2023-03-20T15:04:30;9.47;;;4.47;;
16954;SDS011;8594;52.052;8.354;2023-03-20T15:07:02;10.67;;;5.30;;
16954;SDS011;8594;52.052;8.354;2023-03-20T15:09:40;8.93;;;5.27;;
16954;SDS011;8594;52.052;8.354;2023-03-20T15:12:09;11.23;;;5.00;;
16954;SDS011;8594;52.052;8.354;2023-03-20T15:14:42;12.00;;;5.40;;
16954;SDS011;8594;52.052;8.354;2023-03-20T15:17:15;11.10;;;5.90;;
16954;SDS011;8594;52.052;8.354;2023-03-20T15:19:45;9.20;;;5.10;;
16954;SDS011;8594;52.052;8.354;2023-03-20T15:22:14;9.20;;;4.97;;
16954;SDS011;8594;52.052;8.354;2023-03-20T15:24:51;9.77;;;5.37;;
16954;SDS011;8594;52.052;8.354;2023-03-20T15:27:21;10.20;;;5.20;;